createdAt,value
2023-02-22T00:00:44.744Z,12.00
2023-02-22T00:04:34.079Z,11.40
2023-02-22T00:08:23.600Z,11.10
2023-02-22T00:12:14.003Z,9.90
2023-02-22T00:16:02.898Z,9.40
2023-02-22T00:43:02.484Z,12.90
2023-02-22T00:46:51.918Z,15.10
2023-02-22T00:50:40.804Z,18.80
2023-02-22T00:54:22.297Z,12.20
2023-02-22T00:58:11.390Z,15.60
2023-02-22T01:02:00.122Z,12.20
2023-02-22T01:05:49.222Z,11.40
2023-02-22T01:09:38.224Z,11.70
2023-02-22T01:13:27.259Z,10.20
2023-02-22T01:17:16.385Z,10.20
2023-02-22T01:21:08.457Z,10.40
2023-02-22T01:24:57.762Z,9.90
2023-02-22T01:28:47.819Z,8.60
2023-02-22T01:32:35.732Z,9.20
2023-02-22T01:36:24.598Z,9.80
2023-02-22T01:40:13.568Z,9.60
2023-02-22T01:44:03.180Z,10.50
2023-02-22T01:59:31.119Z,10.70
2023-02-22T02:03:20.371Z,9.70
2023-02-22T02:07:09.274Z,11.50
2023-02-22T02:10:59.374Z,10.70
2023-02-22T02:14:56.047Z,10.30
2023-02-22T02:18:46.790Z,12.90
2023-02-22T02:31:20.567Z,12.40
2023-02-22T02:35:21.797Z,16.70
2023-02-22T02:39:25.885Z,16.20
2023-02-22T02:51:51.598Z,11.90
2023-02-22T02:55:39.075Z,10.80
2023-02-22T02:59:26.964Z,10.20
2023-02-22T03:03:36.488Z,10.30
2023-02-22T03:15:49.244Z,9.80
2023-02-22T03:19:49.486Z,10.00
2023-02-22T03:32:01.078Z,11.40
2023-02-22T03:35:51.185Z,9.80
2023-02-22T03:39:41.159Z,9.10
2023-02-22T03:43:32.887Z,8.30
2023-02-22T03:55:07.334Z,10.00
2023-02-22T03:58:56.696Z,7.60
2023-02-22T04:02:45.897Z,8.80
2023-02-22T04:06:34.944Z,9.60
2023-02-22T04:11:12.123Z,10.70
2023-02-22T04:14:59.598Z,7.80
2023-02-22T04:18:47.269Z,8.50
2023-02-22T04:22:35.090Z,8.80
2023-02-22T04:26:23.022Z,7.90
2023-02-22T04:30:10.677Z,8.90
2023-02-22T04:33:58.321Z,11.30
2023-02-22T04:37:48.100Z,9.20
2023-02-22T04:53:27.574Z,13.10
2023-02-22T04:57:16.663Z,10.90
2023-02-22T05:01:05.847Z,10.60
2023-02-22T05:04:55.184Z,12.00
2023-02-22T05:20:34.443Z,20.60
2023-02-22T05:24:23.769Z,21.60
2023-02-22T05:28:13.118Z,20.10
2023-02-22T05:32:02.249Z,20.80
2023-02-22T05:35:07.103Z,20.00
2023-02-22T05:38:43.549Z,18.90
2023-02-22T05:42:27.232Z,18.00
2023-02-22T05:46:08.627Z,17.20
2023-02-22T05:49:48.782Z,16.10
2023-02-22T05:53:36.556Z,16.40
2023-02-22T05:56:48.583Z,15.30
2023-02-22T06:00:36.719Z,18.50
2023-02-22T06:04:16.105Z,18.00
2023-02-22T06:07:58.338Z,18.10
2023-02-22T06:22:27.904Z,19.70
2023-02-22T06:25:14.989Z,20.60
2023-02-22T06:28:45.378Z,27.00
2023-02-22T06:32:22.014Z,22.30
2023-02-22T06:36:09.509Z,28.30
2023-02-22T06:39:21.084Z,26.90
2023-02-22T06:42:28.537Z,25.50
2023-02-22T06:45:56.083Z,23.30
2023-02-22T06:49:33.636Z,25.20
2023-02-22T06:53:14.156Z,24.60
2023-02-22T06:56:53.407Z,21.10
2023-02-22T07:00:41.437Z,20.00
2023-02-22T07:08:44.455Z,18.30
2023-02-22T07:15:58.747Z,16.50
2023-02-22T07:19:27.335Z,16.00
2023-02-22T07:23:15.004Z,16.30
2023-02-22T07:26:47.441Z,16.50
2023-02-22T07:30:26.809Z,16.10
2023-02-22T07:34:05.888Z,15.20
2023-02-22T07:40:45.165Z,16.00
2023-02-22T07:46:49.755Z,14.20
2023-02-22T07:49:28.757Z,14.60
2023-02-22T07:56:21.883Z,14.40
2023-02-22T07:59:48.572Z,15.70
2023-02-22T08:03:17.005Z,14.40
2023-02-22T08:10:19.575Z,13.90
2023-02-22T08:21:10.631Z,12.60
2023-02-22T08:24:59.923Z,12.50
2023-02-22T08:28:11.667Z,10.40
2023-02-22T08:32:00.892Z,11.70
2023-02-22T08:35:04.255Z,10.50
2023-02-22T08:38:14.848Z,9.90
2023-02-22T08:40:55.657Z,10.20
2023-02-22T08:43:28.599Z,10.40
2023-02-22T08:46:55.258Z,8.90
2023-02-22T08:50:44.579Z,8.10
2023-02-22T08:53:59.310Z,10.90
2023-02-22T08:57:27.809Z,10.20
2023-02-22T09:00:51.411Z,7.30
2023-02-22T09:04:10.805Z,7.80
2023-02-22T09:07:39.130Z,6.70
2023-02-22T09:11:00.463Z,7.20
2023-02-22T09:14:50.216Z,7.30
2023-02-22T09:18:39.123Z,7.70
2023-02-22T09:22:35.548Z,7.60
2023-02-22T09:26:05.638Z,7.20
2023-02-22T09:29:29.624Z,7.30
2023-02-22T09:32:27.435Z,7.40
2023-02-22T09:36:03.728Z,6.20
2023-02-22T09:39:52.923Z,5.20
2023-02-22T09:43:40.336Z,7.10
2023-02-22T09:47:40.460Z,6.70
2023-02-22T09:51:29.659Z,21.10
2023-02-22T10:10:04.612Z,11.10
2023-02-22T10:13:32.915Z,6.90
2023-02-22T10:17:31.220Z,6.30
2023-02-22T10:20:53.368Z,5.90
2023-02-22T10:24:34.040Z,6.10
2023-02-22T10:28:06.077Z,7.10
2023-02-22T10:31:48.126Z,7.90
2023-02-22T10:35:31.524Z,6.10
2023-02-22T10:39:10.041Z,4.60
2023-02-22T10:42:58.118Z,4.50
2023-02-22T10:46:29.040Z,5.10
2023-02-22T10:50:17.723Z,4.70
2023-02-22T10:53:54.737Z,6.20
2023-02-22T10:57:47.306Z,4.80
2023-02-22T11:01:25.617Z,4.80
2023-02-22T11:05:14.815Z,6.30
2023-02-22T11:21:21.664Z,6.80
2023-02-22T11:24:48.813Z,64.70
2023-02-22T11:28:33.479Z,29.10
2023-02-22T11:31:53.954Z,11.50
2023-02-22T11:35:30.395Z,8.50
2023-02-22T11:39:12.558Z,6.30
2023-02-22T11:56:50.769Z,4.60
2023-02-22T12:00:34.817Z,5.30
2023-02-22T12:04:41.630Z,5.70
2023-02-22T12:08:33.108Z,5.90
2023-02-22T12:11:46.633Z,5.90
2023-02-22T12:27:38.005Z,6.30
2023-02-22T12:31:08.966Z,5.50
2023-02-22T12:34:58.120Z,5.20
2023-02-22T12:51:14.748Z,5.80
2023-02-22T12:55:19.461Z,5.10
2023-02-22T12:59:10.498Z,5.40
2023-02-22T13:06:49.702Z,5.10
2023-02-22T13:10:36.820Z,5.90
2023-02-22T13:13:55.403Z,5.00
2023-02-22T13:17:14.753Z,5.00
2023-02-22T13:20:43.286Z,6.00
2023-02-22T13:24:21.065Z,5.80
2023-02-22T13:27:13.281Z,5.00
2023-02-22T13:29:59.277Z,5.00
2023-02-22T13:33:03.059Z,4.90
2023-02-22T13:36:29.715Z,5.60
2023-02-22T13:52:44.116Z,5.90
2023-02-22T13:55:50.633Z,8.10
2023-02-22T13:59:54.160Z,5.90
2023-02-22T14:15:29.098Z,6.00
2023-02-22T14:19:03.315Z,6.50
2023-02-22T14:22:48.129Z,6.20
2023-02-22T14:26:29.576Z,6.70
2023-02-22T14:29:53.906Z,6.90
2023-02-22T14:36:13.039Z,6.30
2023-02-22T14:39:21.898Z,8.30
2023-02-22T14:43:12.114Z,10.00
2023-02-22T14:46:48.384Z,12.00
2023-02-22T14:50:22.889Z,15.60
2023-02-22T15:05:05.184Z,7.70
2023-02-22T15:08:57.001Z,8.90
2023-02-22T15:12:26.821Z,8.40
2023-02-22T15:16:14.857Z,8.70
2023-02-22T15:19:49.874Z,7.80
2023-02-22T15:22:49.260Z,12.50
2023-02-22T15:25:39.192Z,15.70
2023-02-22T15:28:56.407Z,11.50
2023-02-22T15:32:33.704Z,12.20
2023-02-22T15:35:45.905Z,12.00
2023-02-22T15:39:18.871Z,14.00
2023-02-22T15:42:45.223Z,30.60
2023-02-22T15:50:47.888Z,24.90
2023-02-22T15:54:34.124Z,18.70
2023-02-22T15:59:13.697Z,19.40
2023-02-22T16:03:01.411Z,16.50
2023-02-22T16:06:49.333Z,19.30
2023-02-22T16:10:09.469Z,27.70
2023-02-22T16:14:01.393Z,24.90
2023-02-22T16:20:47.366Z,24.70
2023-02-22T16:24:33.010Z,26.30
2023-02-22T16:36:16.669Z,35.50
2023-02-22T16:40:05.955Z,35.20
2023-02-22T16:43:56.621Z,32.80
2023-02-22T16:47:47.322Z,32.70
2023-02-22T16:51:35.233Z,41.60
2023-02-22T17:06:58.345Z,116.80
2023-02-22T17:10:48.074Z,82.80
2023-02-22T17:14:37.040Z,73.70
2023-02-22T17:18:26.175Z,83.90
2023-02-22T17:22:15.405Z,59.20
2023-02-22T17:26:04.644Z,56.40
2023-02-22T17:41:40.143Z,61.60
2023-02-22T17:45:30.066Z,52.00
2023-02-22T17:49:19.058Z,46.90
2023-02-22T17:53:08.483Z,46.40
2023-02-22T17:56:57.522Z,45.40
2023-02-22T18:00:46.988Z,47.50
2023-02-22T18:04:36.251Z,58.70
2023-02-22T18:08:25.845Z,81.20
2023-02-22T18:12:17.380Z,70.10
2023-02-22T18:16:07.468Z,72.20
2023-02-22T18:19:57.463Z,58.20
2023-02-22T18:23:49.663Z,58.20
2023-02-22T18:27:40.715Z,54.80
2023-02-22T18:31:32.063Z,49.80
2023-02-22T18:35:48.838Z,59.70
2023-02-22T18:39:38.174Z,91.00
2023-02-22T18:43:27.387Z,71.00
2023-02-22T18:47:17.899Z,99.70
2023-02-22T18:51:06.625Z,79.30
2023-02-22T18:54:58.626Z,80.00
2023-02-22T18:58:47.669Z,102.80
2023-02-22T19:02:36.995Z,111.20
2023-02-22T19:06:26.853Z,99.10
2023-02-22T19:10:16.240Z,122.00
2023-02-22T19:14:05.499Z,135.80
2023-02-22T19:17:54.944Z,157.50
2023-02-22T19:21:47.200Z,164.70
2023-02-22T19:41:05.104Z,82.70
2023-02-22T19:44:55.222Z,73.00
2023-02-22T19:48:44.154Z,65.90
2023-02-22T19:52:25.584Z,62.40
2023-02-22T19:56:14.872Z,55.10
2023-02-22T20:00:07.374Z,59.90
2023-02-22T20:03:40.395Z,58.50
2023-02-22T20:07:29.710Z,54.40
2023-02-22T20:11:19.545Z,51.00
2023-02-22T20:15:09.089Z,52.80
2023-02-22T20:18:58.499Z,44.10
2023-02-22T20:22:47.483Z,56.30
2023-02-22T20:26:27.389Z,81.90
2023-02-22T20:30:16.827Z,83.10
2023-02-22T20:34:06.564Z,74.00
2023-02-22T20:37:47.183Z,67.80
2023-02-22T20:53:27.797Z,80.00
2023-02-22T20:57:16.760Z,87.10
2023-02-22T21:01:06.058Z,80.90
2023-02-22T21:04:55.355Z,73.70
2023-02-22T21:08:44.454Z,79.20
2023-02-22T21:12:33.560Z,81.70
2023-02-22T21:16:23.043Z,78.20
2023-02-22T21:20:12.431Z,96.90
2023-02-22T21:24:01.391Z,101.50
2023-02-22T21:27:50.697Z,99.00
2023-02-22T21:31:39.915Z,98.80
2023-02-22T21:35:29.168Z,112.80
2023-02-22T21:39:18.313Z,106.80
2023-02-22T21:43:07.537Z,99.00
2023-02-22T21:46:55.474Z,93.00
2023-02-22T21:50:46.670Z,97.90
2023-02-22T21:54:35.454Z,99.80
2023-02-22T21:58:24.209Z,94.20
2023-02-22T22:02:13.193Z,101.60
2023-02-22T22:06:01.448Z,92.20
2023-02-22T22:09:55.056Z,105.00
2023-02-22T22:13:46.245Z,95.40
2023-02-22T22:40:38.601Z,90.70
2023-02-22T22:44:27.642Z,100.40
2023-02-22T22:48:19.448Z,99.30
2023-02-22T22:52:08.561Z,85.40
2023-02-22T22:55:57.664Z,86.60
2023-02-22T23:11:10.339Z,65.70
2023-02-22T23:15:05.300Z,59.60
2023-02-22T23:18:54.317Z,89.90
2023-02-22T23:22:43.308Z,77.70
2023-02-22T23:26:32.263Z,58.30
2023-02-22T23:30:21.591Z,58.50
2023-02-22T23:34:11.322Z,58.10
2023-02-22T23:38:00.464Z,44.80
2023-02-22T23:41:50.421Z,45.90
2023-02-22T23:45:43.707Z,56.60
